Time;durP1;ratioP1;P1;durP2;ratioP2;P2;SDS_P1;SDS_P2;PMS_P1;PMS_P2;Temp;Humidity;BMP_temperature;BMP_pressure;BME280_temperature;BME280_humidity;BME280_pressure;Samples;Min_cycle;Max_cycle;Signal;HPM_P1;HPM_P2
2022/10/10 00:00:03;;;;;;;1.10;0.88;;;20.40;65.90;;;;;;4980743;28;47363;-73
2022/10/10 00:02:29;;;;;;;1.40;0.88;;;20.40;65.90;;;;;;4981384;28;45339;-72
2022/10/10 00:04:58;;;;;;;1.25;0.80;;;20.40;66.00;;;;;;4974734;28;45403;-72
2022/10/10 00:07:24;;;;;;;1.75;0.77;;;20.40;65.90;;;;;;4982458;28;45589;-73
2022/10/10 00:09:51;;;;;;;1.65;0.80;;;20.40;65.90;;;;;;4978413;28;46619;-72
2022/10/10 00:12:18;;;;;;;0.68;0.60;;;20.40;65.90;;;;;;4976834;28;46155;-72
2022/10/10 00:14:44;;;;;;;0.73;0.50;;;20.40;65.90;;;;;;4969289;28;45351;-73
2022/10/10 00:17:11;;;;;;;0.77;0.68;;;20.40;66.80;;;;;;4979753;28;45307;-72
2022/10/10 00:19:38;;;;;;;0.70;0.60;;;20.40;65.80;;;;;;4978975;28;45391;-73
2022/10/10 00:22:06;;;;;;;0.80;0.50;;;20.40;65.80;;;;;;4985702;28;45500;-73
2022/10/10 00:24:34;;;;;;;0.80;0.70;;;20.40;65.80;;;;;;4990956;28;45413;-73
2022/10/10 00:27:01;;;;;;;1.77;0.70;;;20.40;65.90;;;;;;4982209;28;45622;-73
2022/10/10 00:29:27;;;;;;;1.10;0.75;;;20.40;65.70;;;;;;4976288;28;47459;-72
2022/10/10 00:31:54;;;;;;;0.90;0.70;;;20.40;65.90;;;;;;4972387;28;45361;-73
2022/10/10 00:34:21;;;;;;;0.77;0.57;;;20.40;65.70;;;;;;4965089;28;45273;-73
2022/10/10 00:36:48;;;;;;;1.35;0.63;;;20.40;65.90;;;;;;4976681;28;45494;-72
2022/10/10 00:39:16;;;;;;;0.77;0.68;;;20.40;65.70;;;;;;4980323;28;45395;-73
2022/10/10 00:41:43;;;;;;;1.38;0.65;;;20.40;65.70;;;;;;4978247;28;45483;-72
2022/10/10 00:44:12;;;;;;;1.63;0.70;;;20.40;65.70;;;;;;4968516;28;45426;-73
2022/10/10 00:46:39;;;;;;;0.77;0.70;;;20.40;65.90;;;;;;4978687;28;45339;-73
2022/10/10 00:49:10;;;;;;;1.20;0.75;;;20.40;65.70;;;;;;4972784;28;47576;-73
2022/10/10 00:51:37;;;;;;;1.02;0.70;;;20.40;65.90;;;;;;4979923;28;45423;-72
2022/10/10 00:54:08;;;;;;;0.98;0.57;;;20.30;65.70;;;;;;4980157;28;45477;-73
2022/10/10 00:56:41;;;;;;;1.15;0.63;;;20.30;65.30;;;;;;4973344;28;45589;-73
2022/10/10 00:59:11;;;;;;;0.60;0.60;;;20.40;65.50;;;;;;4983878;28;45187;-73
2022/10/10 01:01:38;;;;;;;1.10;0.60;;;20.40;65.50;;;;;;4973334;28;45343;-73
2022/10/10 01:04:05;;;;;;;0.95;0.68;;;20.40;65.40;;;;;;4984035;28;45247;-73
2022/10/10 01:06:33;;;;;;;0.70;0.57;;;20.40;65.50;;;;;;4975804;28;45478;-73
2022/10/10 01:09:00;;;;;;;0.63;0.43;;;20.40;65.30;;;;;;4985563;28;46402;-72
2022/10/10 01:11:48;;;;;;;1.08;0.70;;;20.40;65.50;;;;;;4977035;28;45422;-73
2022/10/10 01:14:25;;;;;;;0.77;0.68;;;20.40;65.40;;;;;;4975102;28;45284;-72
2022/10/10 01:17:01;;;;;;;0.93;0.60;;;20.40;65.60;;;;;;4984745;28;45601;-73
2022/10/10 01:20:06;;;;;;;1.00;0.70;;;20.40;65.30;;;;;;4972191;28;46383;-73
2022/10/10 01:22:40;;;;;;;0.80;0.70;;;20.40;65.40;;;;;;4966226;28;45371;-72
2022/10/10 01:25:17;;;;;;;1.10;0.60;;;20.40;65.30;;;;;;4983638;28;45267;-73
2022/10/10 01:27:50;;;;;;;1.52;0.80;;;20.40;65.40;;;;;;4984615;28;45282;-73
2022/10/10 01:30:21;;;;;;;1.00;0.80;;;20.40;65.30;;;;;;4976910;28;45320;-73
2022/10/10 01:32:53;;;;;;;1.25;0.70;;;20.30;65.10;;;;;;4975089;28;46063;-73
2022/10/10 01:35:32;;;;;;;2.10;0.85;;;20.30;65.10;;;;;;4975671;28;45631;-73
2022/10/10 01:38:07;;;;;;;0.63;0.63;;;20.30;65.00;;;;;;4984213;28;45332;-73
2022/10/10 01:40:39;;;;;;;1.13;0.80;;;20.30;64.90;;;;;;4979283;28;47145;-72
2022/10/10 01:43:08;;;;;;;0.70;0.70;;;20.30;65.10;;;;;;4978703;28;45336;-72
2022/10/10 01:45:36;;;;;;;0.63;0.60;;;20.30;64.90;;;;;;4977711;28;45391;-73
2022/10/10 01:48:05;;;;;;;0.65;0.60;;;20.30;65.00;;;;;;4985002;28;45272;-72
2022/10/10 01:50:34;;;;;;;0.80;0.60;;;20.30;65.10;;;;;;4982567;28;46389;-73
2022/10/10 01:53:11;;;;;;;0.57;0.57;;;20.30;65.10;;;;;;4976609;28;45828;-72
2022/10/10 01:55:53;;;;;;;1.23;0.80;;;20.30;64.90;;;;;;4972587;28;45482;-73
2022/10/10 01:58:38;;;;;;;0.70;0.70;;;20.30;64.80;;;;;;4982245;28;45414;-73
2022/10/10 02:01:16;;;;;;;0.77;0.70;;;20.30;64.90;;;;;;4982461;28;45581;-73
2022/10/10 02:03:46;;;;;;;0.65;0.65;;;20.40;65.10;;;;;;4980576;28;45339;-72
2022/10/10 02:06:20;;;;;;;0.60;0.50;;;20.40;65.00;;;;;;4977554;28;45299;-72
2022/10/10 02:08:51;;;;;;;1.10;0.60;;;20.40;65.20;;;;;;4982331;28;45411;-73
2022/10/10 02:11:18;;;;;;;1.33;0.60;;;20.40;64.90;;;;;;4974359;28;45491;-72
2022/10/10 02:13:48;;;;;;;0.95;0.60;;;20.30;64.80;;;;;;4979409;28;45282;-73
2022/10/10 02:16:20;;;;;;;1.00;0.60;;;20.40;64.90;;;;;;4982845;28;45481;-73
2022/10/10 02:18:49;;;;;;;0.50;0.50;;;20.40;64.70;;;;;;4981805;28;45703;-73
2022/10/10 02:21:17;;;;;;;1.10;0.70;;;20.40;64.90;;;;;;4980762;28;45371;-73
2022/10/10 02:23:48;;;;;;;0.98;0.80;;;20.40;64.90;;;;;;4981328;28;45339;-73
2022/10/10 02:26:17;;;;;;;0.70;0.60;;;20.40;64.90;;;;;;4981901;28;45476;-73
2022/10/10 02:28:51;;;;;;;0.50;0.50;;;20.30;64.60;;;;;;4983538;28;45441;-73
2022/10/10 02:31:24;;;;;;;0.70;0.68;;;20.30;64.50;;;;;;4978520;28;47113;-73
2022/10/10 02:33:57;;;;;;;1.27;0.70;;;20.30;64.50;;;;;;4980939;28;45923;-72
2022/10/10 02:36:25;;;;;;;1.02;0.70;;;20.30;64.50;;;;;;4982613;28;45410;-73
2022/10/10 02:38:53;;;;;;;0.60;0.50;;;20.30;64.50;;;;;;4982349;28;45400;-73
2022/10/10 02:41:22;;;;;;;1.88;0.77;;;20.30;65.60;;;;;;4982405;28;48299;-72
2022/10/10 02:43:50;;;;;;;0.68;0.60;;;20.30;64.70;;;;;;4982945;28;45444;-73
2022/10/10 02:46:17;;;;;;;1.17;0.60;;;20.30;64.70;;;;;;4980846;28;45450;-73
2022/10/10 02:48:45;;;;;;;0.80;0.47;;;20.30;64.60;;;;;;4982668;28;45388;-73
2022/10/10 02:51:14;;;;;;;1.38;0.70;;;20.30;64.50;;;;;;4983927;28;48335;-72
2022/10/10 02:53:40;;;;;;;0.98;0.50;;;20.30;64.60;;;;;;4983425;28;45454;-72
2022/10/10 02:56:07;;;;;;;0.93;0.70;;;20.30;64.40;;;;;;4971988;28;45425;-72
2022/10/10 02:58:34;;;;;;;0.80;0.70;;;20.30;64.40;;;;;;4982418;28;45258;-72
2022/10/10 03:01:01;;;;;;;1.05;0.70;;;20.30;64.50;;;;;;4981592;28;46546;-73
2022/10/10 03:03:27;;;;;;;0.95;0.77;;;20.30;64.50;;;;;;4975671;28;45431;-73
2022/10/10 03:05:56;;;;;;;0.95;0.70;;;20.30;64.40;;;;;;4972410;28;45382;-72
2022/10/10 03:08:22;;;;;;;0.55;0.52;;;20.30;64.30;;;;;;4966674;28;45451;-72
2022/10/10 03:10:56;;;;;;;0.82;0.63;;;20.30;64.50;;;;;;4974299;28;46583;-72
2022/10/10 03:13:24;;;;;;;1.13;0.50;;;20.30;64.30;;;;;;4971484;28;45253;-73
2022/10/10 03:15:51;;;;;;;0.93;0.68;;;20.40;64.50;;;;;;4971444;28;45511;-72
2022/10/10 03:18:18;;;;;;;0.50;0.50;;;20.30;64.40;;;;;;4979148;28;45477;-73
2022/10/10 03:20:45;;;;;;;0.50;0.50;;;20.40;64.50;;;;;;4983530;28;45450;-73
2022/10/10 03:23:13;;;;;;;1.15;0.75;;;20.40;64.60;;;;;;4981386;28;45469;-73
2022/10/10 03:25:41;;;;;;;0.70;0.60;;;20.30;64.30;;;;;;4975666;28;45297;-72
2022/10/10 03:28:08;;;;;;;0.60;0.50;;;20.30;64.20;;;;;;4981162;28;45417;-73
2022/10/10 03:30:35;;;;;;;0.65;0.38;;;20.30;64.10;;;;;;4972703;28;47582;-73
2022/10/10 03:33:02;;;;;;;0.63;0.50;;;20.30;64.10;;;;;;4979076;28;45544;-73
2022/10/10 03:35:29;;;;;;;0.50;0.50;;;20.30;64.00;;;;;;4973445;28;45283;-72
2022/10/10 03:37:56;;;;;;;0.68;0.68;;;20.30;64.00;;;;;;4980060;28;45383;-73
2022/10/10 03:40:24;;;;;;;0.65;0.60;;;20.30;64.10;;;;;;4973888;28;45542;-73
2022/10/10 03:42:51;;;;;;;0.70;0.60;;;20.30;65.10;;;;;;4982499;28;45458;-72
2022/10/10 03:45:18;;;;;;;0.55;0.40;;;20.30;64.20;;;;;;4978867;28;45449;-72
2022/10/10 03:47:44;;;;;;;0.43;0.43;;;20.30;64.50;;;;;;4979944;28;45552;-72
2022/10/10 03:50:11;;;;;;;0.57;0.50;;;20.30;63.90;;;;;;4980445;28;47348;-72
2022/10/10 03:52:38;;;;;;;0.90;0.50;;;20.30;64.20;;;;;;4976634;28;45369;-73
2022/10/10 03:55:06;;;;;;;0.50;0.50;;;20.30;64.00;;;;;;4977198;28;45507;-72
2022/10/10 03:57:34;;;;;;;2.65;0.82;;;20.30;64.00;;;;;;4978076;28;45268;-72
2022/10/10 04:00:01;;;;;;;0.50;0.50;;;20.30;64.00;;;;;;4975274;28;46448;-72
2022/10/10 04:02:27;;;;;;;0.63;0.45;;;20.30;64.00;;;;;;4970101;28;45388;-73
2022/10/10 04:04:54;;;;;;;1.02;0.60;;;20.30;64.10;;;;;;4974567;28;45256;-72
2022/10/10 04:07:21;;;;;;;0.55;0.55;;;20.30;64.00;;;;;;4973897;28;45338;-73
2022/10/10 04:09:48;;;;;;;1.42;0.60;;;20.30;64.10;;;;;;4980102;28;47485;-72
2022/10/10 04:12:15;;;;;;;1.30;0.60;;;20.30;64.10;;;;;;4973179;28;45438;-73
2022/10/10 04:14:43;;;;;;;1.00;0.60;;;20.30;64.10;;;;;;4969647;28;45296;-72
2022/10/10 04:17:09;;;;;;;1.10;0.70;;;20.30;64.00;;;;;;4980023;28;45623;-72
2022/10/10 04:19:36;;;;;;;1.15;0.70;;;20.40;64.10;;;;;;4982239;28;47496;-72
2022/10/10 04:22:03;;;;;;;1.00;0.60;;;20.30;64.10;;;;;;4974005;28;45346;-72
2022/10/10 04:24:30;;;;;;;0.55;0.55;;;20.30;64.00;;;;;;4975103;28;45446;-72
2022/10/10 04:26:57;;;;;;;1.00;0.73;;;20.30;64.00;;;;;;4972468;28;45371;-73
2022/10/10 04:29:24;;;;;;;0.55;0.50;;;20.30;64.80;;;;;;4974226;28;47126;-72
2022/10/10 04:31:52;;;;;;;0.65;0.60;;;20.30;63.70;;;;;;4982066;28;45359;-73
2022/10/10 04:34:20;;;;;;;0.50;0.50;;;20.30;63.70;;;;;;4978716;28;45462;-72
2022/10/10 04:36:46;;;;;;;1.00;0.73;;;20.30;63.70;;;;;;4975434;28;45466;-72
2022/10/10 04:39:13;;;;;;;4.95;0.70;;;20.30;63.60;;;;;;4971561;28;46654;-72
2022/10/10 04:41:40;;;;;;;0.90;0.65;;;20.30;63.70;;;;;;4973279;28;45562;-72
2022/10/10 04:44:06;;;;;;;0.52;0.50;;;20.30;63.70;;;;;;4981517;28;45382;-72
2022/10/10 04:46:33;;;;;;;1.00;0.65;;;20.30;63.70;;;;;;4975580;28;45280;-72
2022/10/10 04:49:01;;;;;;;0.60;0.60;;;20.30;63.60;;;;;;4970303;28;47533;-72
2022/10/10 04:51:28;;;;;;;0.82;0.70;;;20.30;63.80;;;;;;4965215;28;47045;-72
2022/10/10 04:53:55;;;;;;;0.85;0.60;;;20.30;63.70;;;;;;4970360;28;45555;-73
2022/10/10 04:56:22;;;;;;;0.73;0.70;;;20.30;63.70;;;;;;4977536;28;45445;-73
2022/10/10 04:58:48;;;;;;;0.85;0.70;;;20.30;63.80;;;;;;4975155;28;46862;-72
2022/10/10 05:01:15;;;;;;;1.30;0.80;;;20.30;63.90;;;;;;4979263;28;45338;-72
2022/10/10 05:03:42;;;;;;;1.13;0.70;;;20.30;63.90;;;;;;4975867;28;45338;-72
2022/10/10 05:06:10;;;;;;;1.10;0.85;;;20.30;63.90;;;;;;4979080;28;45537;-72
2022/10/10 05:08:37;;;;;;;1.15;0.77;;;20.30;63.90;;;;;;4975605;28;46539;-73
2022/10/10 05:11:03;;;;;;;1.35;1.02;;;20.30;63.80;;;;;;4969061;28;46281;-72
2022/10/10 05:13:30;;;;;;;1.30;0.70;;;20.30;63.90;;;;;;4980155;28;45463;-72
2022/10/10 05:15:57;;;;;;;1.08;0.80;;;20.30;64.00;;;;;;4973641;28;45271;-73
2022/10/10 05:18:24;;;;;;;1.10;0.75;;;20.30;63.90;;;;;;4978355;28;47385;-72
2022/10/10 05:20:51;;;;;;;1.77;0.75;;;20.30;63.80;;;;;;4978599;28;45391;-72
2022/10/10 05:23:19;;;;;;;1.05;0.57;;;20.30;63.80;;;;;;4979463;28;45390;-72
2022/10/10 05:25:48;;;;;;;1.00;0.77;;;20.30;63.70;;;;;;4980019;28;45504;-72
2022/10/10 05:28:16;;;;;;;2.42;0.80;;;20.30;63.70;;;;;;4975275;28;46436;-72
2022/10/10 05:30:43;;;;;;;0.68;0.60;;;20.30;63.50;;;;;;4981664;28;45395;-72
2022/10/10 05:33:10;;;;;;;1.70;0.90;;;20.30;63.60;;;;;;4980432;28;45355;-73
2022/10/10 05:35:37;;;;;;;1.00;0.80;;;20.30;63.70;;;;;;4979634;28;45399;-72
2022/10/10 05:38:05;;;;;;;1.58;0.80;;;20.30;63.60;;;;;;4980664;28;46540;-72
2022/10/10 05:40:33;;;;;;;0.77;0.70;;;20.30;63.80;;;;;;4979060;28;45699;-72
2022/10/10 05:43:00;;;;;;;0.95;0.70;;;20.30;63.90;;;;;;4979501;28;45392;-72
2022/10/10 05:45:26;;;;;;;1.83;0.80;;;20.30;63.70;;;;;;4981732;28;45547;-71
2022/10/10 05:47:53;;;;;;;1.25;0.82;;;20.30;63.80;;;;;;4973855;28;47070;-72
2022/10/10 05:50:29;;;;;;;1.70;0.80;;;20.30;64.60;;;;;;4982333;28;45458;-72
2022/10/10 05:52:56;;;;;;;3.13;0.85;;;20.30;63.00;;;;;;4980653;28;45348;-72
2022/10/10 05:55:23;;;;;;;1.65;0.93;;;20.30;64.10;;;;;;4983953;28;45421;-73
2022/10/10 05:57:51;;;;;;;1.42;0.85;;;20.30;62.80;;;;;;4983879;28;47426;-72
2022/10/10 06:00:18;;;;;;;1.90;1.00;;;20.30;62.60;;;;;;4980547;28;45318;-72
2022/10/10 06:02:45;;;;;;;1.02;0.82;;;20.30;61.80;;;;;;4981012;28;45299;-72
2022/10/10 06:05:12;;;;;;;1.40;1.02;;;20.30;61.70;;;;;;4986632;28;45483;-72
2022/10/10 06:07:38;;;;;;;1.58;1.10;;;20.30;61.20;;;;;;4985853;28;47446;-72
2022/10/10 06:10:06;;;;;;;1.30;1.08;;;20.30;61.70;;;;;;4978536;28;45462;-72
2022/10/10 06:12:33;;;;;;;1.30;1.00;;;20.20;62.10;;;;;;4982441;28;45590;-72
2022/10/10 06:15:01;;;;;;;2.10;1.02;;;20.20;61.80;;;;;;4982352;28;45299;-72
2022/10/10 06:17:28;;;;;;;1.25;0.98;;;20.20;61.70;;;;;;4970979;28;46960;-73
2022/10/10 06:19:54;;;;;;;2.50;1.13;;;20.20;61.80;;;;;;4977770;28;45385;-73
2022/10/10 06:22:21;;;;;;;1.35;0.82;;;20.20;61.80;;;;;;4979229;28;45252;-72
2022/10/10 06:24:48;;;;;;;3.00;1.10;;;20.20;61.60;;;;;;4982096;28;45422;-73
2022/10/10 06:27:15;;;;;;;2.17;1.15;;;20.20;61.60;;;;;;4985086;28;48716;-72
2022/10/10 06:29:41;;;;;;;2.33;1.30;;;20.20;61.40;;;;;;4983692;28;45490;-72
2022/10/10 06:32:10;;;;;;;1.67;1.20;;;20.20;61.40;;;;;;4974566;28;45511;-73
2022/10/10 06:34:37;;;;;;;1.20;0.90;;;20.20;61.40;;;;;;4979218;28;45402;-73
2022/10/10 06:37:04;;;;;;;2.38;1.10;;;20.20;61.80;;;;;;4979289;28;47334;-73
2022/10/10 06:39:31;;;;;;;1.60;0.98;;;20.20;62.00;;;;;;4979755;28;45393;-73
2022/10/10 06:41:58;;;;;;;3.30;1.10;;;20.20;62.20;;;;;;4968996;28;45438;-72
2022/10/10 06:44:25;;;;;;;1.58;1.08;;;20.20;62.40;;;;;;4979389;28;45497;-73
2022/10/10 06:46:51;;;;;;;1.73;1.00;;;20.30;62.60;;;;;;4982856;28;46295;-73
2022/10/10 06:49:19;;;;;;;3.72;1.40;;;20.30;62.80;;;;;;4980475;28;45263;-73
2022/10/10 06:51:46;;;;;;;32.20;3.13;;;20.20;62.80;;;;;;4979616;28;45373;-75
2022/10/10 06:54:13;;;;;;;16.75;1.80;;;20.30;63.30;;;;;;4979253;28;45581;-73
2022/10/10 06:56:40;;;;;;;10.25;1.90;;;20.30;63.90;;;;;;4977669;28;47165;-72
2022/10/10 06:59:07;;;;;;;15.38;2.03;;;20.30;64.10;;;;;;4979458;28;45316;-73
2022/10/10 07:01:33;;;;;;;13.30;1.50;;;20.30;64.00;;;;;;4980236;28;45351;-73
2022/10/10 07:04:00;;;;;;;3.38;1.50;;;20.30;63.90;;;;;;4981092;28;45604;-73
2022/10/10 07:06:29;;;;;;;4.30;1.15;;;20.30;64.00;;;;;;4978941;28;46676;-73
2022/10/10 07:08:56;;;;;;;7.60;1.40;;;20.30;64.00;;;;;;4973766;28;45449;-73
2022/10/10 07:11:24;;;;;;;6.85;1.45;;;20.30;64.00;;;;;;4983361;28;45300;-73
2022/10/10 07:13:52;;;;;;;4.97;1.70;;;20.30;64.00;;;;;;4982330;28;45487;-73
2022/10/10 07:16:19;;;;;;;3.10;1.00;;;20.30;64.90;;;;;;4982036;28;47602;-73
2022/10/10 07:18:47;;;;;;;2.15;1.08;;;20.40;63.90;;;;;;4980629;28;45501;-73
2022/10/10 07:21:13;;;;;;;8.75;1.02;;;20.40;63.80;;;;;;4982417;28;45333;-72
2022/10/10 07:23:42;;;;;;;1.95;1.15;;;20.40;63.90;;;;;;4982217;28;45268;-73
2022/10/10 07:26:11;;;;;;;3.55;1.35;;;20.40;63.90;;;;;;4973420;28;45419;-73
2022/10/10 07:28:39;;;;;;;1.23;0.93;;;20.40;64.00;;;;;;4975226;28;46080;-72
2022/10/10 07:31:07;;;;;;;2.92;0.93;;;20.40;64.10;;;;;;4981609;28;45425;-73
2022/10/10 07:33:36;;;;;;;2.47;1.02;;;20.40;64.60;;;;;;4981950;28;45608;-73
2022/10/10 07:36:03;;;;;;;3.40;1.00;;;20.40;64.30;;;;;;4974134;28;48435;-73
2022/10/10 07:38:30;;;;;;;5.03;1.00;;;20.40;64.30;;;;;;4982424;28;46299;-73
2022/10/10 07:40:58;;;;;;;1.83;1.05;;;20.40;64.40;;;;;;4974755;28;45438;-73
2022/10/10 07:43:25;;;;;;;3.30;0.90;;;20.40;64.70;;;;;;4979641;28;45481;-73
2022/10/10 07:45:52;;;;;;;2.47;0.95;;;20.40;64.50;;;;;;4975627;28;45419;-73
2022/10/10 07:48:19;;;;;;;1.98;1.13;;;20.40;64.70;;;;;;4983028;28;45383;-73
2022/10/10 07:50:45;;;;;;;2.33;0.88;;;20.40;64.70;;;;;;4976081;28;45461;-72
2022/10/10 07:53:12;;;;;;;1.17;0.82;;;20.40;64.80;;;;;;4980657;28;45555;-72
2022/10/10 07:55:39;;;;;;;1.90;1.05;;;20.40;64.80;;;;;;4980901;28;46318;-73
2022/10/10 07:58:09;;;;;;;1.88;0.90;;;20.40;64.80;;;;;;4978939;28;45605;-73
2022/10/10 08:00:37;;;;;;;1.85;1.05;;;20.40;64.80;;;;;;4982009;28;45216;-73
2022/10/10 08:03:04;;;;;;;1.13;0.90;;;20.40;64.80;;;;;;5001005;28;45615;-73
2022/10/10 08:05:30;;;;;;;1.63;0.68;;;20.50;64.90;;;;;;5000634;28;47690;-72
2022/10/10 08:07:57;;;;;;;2.92;0.90;;;20.50;65.00;;;;;;5002304;28;45370;-73
2022/10/10 08:10:24;;;;;;;1.40;0.88;;;20.50;65.00;;;;;;5001992;28;45398;-72
2022/10/10 08:12:51;;;;;;;1.52;1.00;;;20.50;65.00;;;;;;5001974;28;45292;-73
2022/10/10 08:15:19;;;;;;;1.33;0.85;;;20.50;65.00;;;;;;5001822;28;46878;-72
2022/10/10 08:17:46;;;;;;;1.15;0.90;;;20.50;65.10;;;;;;5001139;28;46705;-73
2022/10/10 08:20:12;;;;;;;3.88;0.93;;;20.50;65.20;;;;;;4992967;28;45268;-73
2022/10/10 08:22:40;;;;;;;3.25;0.90;;;20.50;65.20;;;;;;4994912;28;45561;-73
2022/10/10 08:25:07;;;;;;;0.88;0.80;;;20.50;65.20;;;;;;5000249;28;46249;-72
2022/10/10 08:27:34;;;;;;;4.30;1.02;;;20.50;65.30;;;;;;5001817;28;45366;-73
2022/10/10 08:30:01;;;;;;;1.55;0.70;;;20.50;65.30;;;;;;5001908;28;45324;-73
2022/10/10 08:32:29;;;;;;;1.77;0.90;;;20.60;65.50;;;;;;5001190;28;45501;-73
2022/10/10 08:34:56;;;;;;;2.20;1.00;;;20.60;65.50;;;;;;5001056;28;47855;-73
2022/10/10 08:37:23;;;;;;;1.55;0.90;;;20.60;65.60;;;;;;5001933;28;45535;-73
2022/10/10 08:39:50;;;;;;;2.03;1.00;;;20.60;65.50;;;;;;5002435;28;45340;-72
2022/10/10 08:42:29;;;;;;;1.10;0.75;;;20.60;65.60;;;;;;5000755;28;45301;-73
2022/10/10 08:45:01;;;;;;;1.05;0.90;;;20.60;65.70;;;;;;4997539;28;47979;-74
2022/10/10 08:47:37;;;;;;;1.48;0.85;;;20.60;65.70;;;;;;4999107;28;45264;-73
2022/10/10 08:50:11;;;;;;;1.42;1.00;;;20.60;65.80;;;;;;4997377;28;45328;-73
2022/10/10 08:52:41;;;;;;;1.00;0.77;;;20.60;65.90;;;;;;5002252;28;45605;-73
2022/10/10 08:55:16;;;;;;;1.25;0.90;;;20.60;66.00;;;;;;4998125;28;48449;-73
2022/10/10 08:57:50;;;;;;;1.42;0.70;;;20.60;66.10;;;;;;4998412;28;45459;-73
2022/10/10 09:00:20;;;;;;;3.83;1.00;;;20.60;66.10;;;;;;4993294;28;45513;-73
2022/10/10 09:02:51;;;;;;;1.30;0.90;;;20.60;66.20;;;;;;4976906;28;45602;-73
2022/10/10 09:05:20;;;;;;;1.20;0.73;;;20.60;66.30;;;;;;4975880;28;48509;-73
2022/10/10 09:08:02;;;;;;;1.58;0.90;;;20.60;66.60;;;;;;4974240;28;45346;-73
2022/10/10 09:10:36;;;;;;;1.92;0.90;;;20.60;66.70;;;;;;4975296;28;45360;-73
2022/10/10 09:13:15;;;;;;;1.58;0.90;;;20.60;66.80;;;;;;4973684;28;45336;-73
2022/10/10 09:15:49;;;;;;;1.63;0.80;;;20.60;66.80;;;;;;4981579;28;47815;-73
2022/10/10 09:18:27;;;;;;;2.67;1.00;;;20.60;66.90;;;;;;4983322;28;45779;-73
2022/10/10 09:21:02;;;;;;;1.55;0.65;;;20.60;67.00;;;;;;4984112;28;45289;-72
2022/10/10 09:23:34;;;;;;;1.48;0.88;;;20.60;67.00;;;;;;4972280;28;45487;-73
2022/10/10 09:26:05;;;;;;;3.85;1.27;;;20.60;67.10;;;;;;4968099;28;46610;-72
2022/10/10 09:28:38;;;;;;;1.25;0.80;;;20.60;67.20;;;;;;4977761;28;45291;-73
2022/10/10 09:31:11;;;;;;;1.70;0.90;;;20.60;67.20;;;;;;4981463;28;45445;-73
2022/10/10 09:33:44;;;;;;;1.98;0.98;;;20.60;67.20;;;;;;4983709;28;45412;-72
2022/10/10 09:36:14;;;;;;;1.45;0.70;;;20.60;67.30;;;;;;4975621;28;45394;-73
2022/10/10 09:38:46;;;;;;;1.17;0.70;;;20.60;67.30;;;;;;4971648;28;45409;-73
2022/10/10 09:41:19;;;;;;;2.42;0.93;;;20.60;67.80;;;;;;4982175;28;45454;-73
2022/10/10 09:43:46;;;;;;;1.50;0.90;;;20.60;67.50;;;;;;4982889;28;45508;-73
2022/10/10 09:46:14;;;;;;;1.85;0.75;;;20.60;67.50;;;;;;4984586;28;45287;-73
2022/10/10 09:48:43;;;;;;;2.30;0.93;;;20.60;67.50;;;;;;4978461;28;45300;-73
2022/10/10 09:51:14;;;;;;;2.38;0.80;;;20.60;67.80;;;;;;4980026;28;45509;-73
2022/10/10 09:53:41;;;;;;;1.20;0.85;;;20.70;67.90;;;;;;4977569;28;45424;-72
2022/10/10 09:56:14;;;;;;;1.95;0.93;;;20.70;67.90;;;;;;4983085;28;48605;-73
2022/10/10 09:58:43;;;;;;;1.30;0.77;;;20.70;68.00;;;;;;4982989;28;45230;-73
2022/10/10 10:01:14;;;;;;;2.38;1.00;;;20.70;67.90;;;;;;4982285;28;45524;-73
2022/10/10 10:03:42;;;;;;;3.15;1.02;;;20.70;67.90;;;;;;4981916;28;45458;-75
2022/10/10 10:06:13;;;;;;;5.25;1.20;;;20.70;69.80;;;;;;4985656;28;45522;-74
2022/10/10 10:08:42;;;;;;;1.95;0.80;;;20.80;71.90;;;;;;4983837;28;45314;-74
2022/10/10 10:11:25;;;;;;;3.25;0.98;;;20.80;72.20;;;;;;4984965;28;45259;-74
2022/10/10 10:13:55;;;;;;;9.65;1.00;;;20.80;73.00;;;;;;4983558;28;45586;-74
2022/10/10 10:16:31;;;;;;;1.83;0.90;;;20.90;73.10;;;;;;4983995;28;46384;-74
2022/10/10 10:18:59;;;;;;;3.17;0.68;;;21.00;73.00;;;;;;4985772;28;45275;-74
2022/10/10 10:21:26;;;;;;;3.70;0.73;;;21.30;73.20;;;;;;4983958;28;45298;-74
2022/10/10 10:23:59;;;;;;;1.40;0.80;;;21.40;73.30;;;;;;4985282;28;45372;-75
2022/10/10 10:26:30;;;;;;;1.60;0.70;;;21.60;73.50;;;;;;4983175;28;46350;-74
2022/10/10 10:28:58;;;;;;;1.08;0.60;;;21.80;73.80;;;;;;4984201;28;45288;-75
2022/10/10 10:31:39;;;;;;;2.22;0.90;;;22.00;74.30;;;;;;4979525;28;45246;-75
2022/10/10 10:34:29;;;;;;;1.83;0.70;;;22.10;74.50;;;;;;4984019;28;45579;-75
2022/10/10 10:37:04;;;;;;;2.15;0.82;;;22.20;75.20;;;;;;4977539;28;47498;-74
2022/10/10 10:39:44;;;;;;;4.50;0.90;;;22.40;75.60;;;;;;4976587;28;45497;-75
2022/10/10 10:42:28;;;;;;;1.50;0.70;;;22.60;75.90;;;;;;4985507;28;45255;-75
2022/10/10 10:45:09;;;;;;;0.95;0.52;;;22.70;75.30;;;;;;4982643;28;45471;-74
2022/10/10 10:47:47;;;;;;;2.05;0.93;;;22.80;76.60;;;;;;4984113;28;47707;-74
2022/10/10 10:50:33;;;;;;;2.17;0.85;;;22.90;76.60;;;;;;4984145;28;45638;-74
2022/10/10 10:53:04;;;;;;;1.83;1.05;;;23.00;75.70;;;;;;4984202;28;45510;-74
2022/10/10 10:55:39;;;;;;;1.08;0.70;;;23.00;75.40;;;;;;4984217;28;45484;-74
2022/10/10 10:58:44;;;;;;;1.50;0.90;;;22.90;74.90;;;;;;4981773;28;47401;-74
2022/10/10 11:01:16;;;;;;;5.18;1.05;;;22.80;75.00;;;;;;4949511;28;45306;-74
2022/10/10 11:03:53;;;;;;;2.45;0.88;;;22.70;75.70;;;;;;4983598;28;45452;-75
2022/10/10 11:06:34;;;;;;;2.40;1.20;;;22.70;76.10;;;;;;4983026;28;45439;-74
2022/10/10 11:09:12;;;;;;;1.90;1.08;;;22.70;76.40;;;;;;4983191;28;45363;-74
2022/10/10 11:11:55;;;;;;;1.80;0.90;;;22.70;76.80;;;;;;4976974;28;45384;-73
2022/10/10 11:14:36;;;;;;;4.43;1.35;;;22.80;76.80;;;;;;4981627;28;45421;-73
2022/10/10 11:17:11;;;;;;;5.28;0.90;;;22.80;76.30;;;;;;4971241;28;45442;-74
2022/10/10 11:19:43;;;;;;;1.55;0.82;;;22.80;75.70;;;;;;4982827;28;46250;-73
2022/10/10 11:22:15;;;;;;;7.00;1.10;;;22.70;75.60;;;;;;4981682;28;45488;-73
2022/10/10 11:24:45;;;;;;;2.95;1.10;;;22.70;75.60;;;;;;4978110;28;45346;-73
2022/10/10 11:27:19;;;;;;;2.88;1.02;;;22.40;75.60;;;;;;4979512;28;45382;-73
2022/10/10 11:30:06;;;;;;;4.63;1.17;;;22.10;75.70;;;;;;4978393;28;47312;-73
2022/10/10 11:32:39;;;;;;;2.42;1.05;;;22.00;76.10;;;;;;4978788;28;45648;-73
2022/10/10 11:35:15;;;;;;;1.30;0.80;;;21.80;76.30;;;;;;4981581;28;45405;-73
2022/10/10 11:37:48;;;;;;;2.28;0.90;;;21.80;76.50;;;;;;4981580;28;45356;-73
2022/10/10 11:40:28;;;;;;;3.13;1.05;;;21.60;77.70;;;;;;4980757;28;47452;-73
2022/10/10 11:42:59;;;;;;;1.65;0.77;;;21.60;76.70;;;;;;4981501;28;45491;-73
2022/10/10 11:45:30;;;;;;;2.15;0.85;;;21.50;76.80;;;;;;4979584;28;45509;-73
2022/10/10 11:48:05;;;;;;;3.53;1.23;;;21.50;76.90;;;;;;4971816;28;45475;-73
2022/10/10 11:50:38;;;;;;;2.25;0.90;;;21.50;76.70;;;;;;4979121;28;46406;-72
2022/10/10 11:53:15;;;;;;;1.63;0.80;;;21.40;78.00;;;;;;4983539;28;45339;-73
2022/10/10 11:55:47;;;;;;;1.58;0.90;;;21.40;76.90;;;;;;4978044;28;45792;-73
2022/10/10 11:58:32;;;;;;;3.22;0.82;;;21.40;77.00;;;;;;4979027;28;45554;-74
2022/10/10 12:01:05;;;;;;;2.42;0.73;;;21.30;76.50;;;;;;4974966;28;47230;-74
2022/10/10 12:03:32;;;;;;;1.05;0.50;;;21.30;76.40;;;;;;4978336;28;45261;-74
2022/10/10 12:06:05;;;;;;;4.72;0.80;;;21.20;76.70;;;;;;4981280;28;45452;-73
2022/10/10 12:08:38;;;;;;;1.48;0.90;;;21.20;76.50;;;;;;4974347;28;45335;-74
2022/10/10 12:11:15;;;;;;;4.13;0.90;;;21.20;76.30;;;;;;4974181;28;47318;-73
2022/10/10 12:13:45;;;;;;;1.27;0.70;;;21.20;77.30;;;;;;4981749;28;45351;-75
2022/10/10 12:16:15;;;;;;;0.98;0.55;;;21.20;76.30;;;;;;4981319;28;45489;-73
2022/10/10 12:18:45;;;;;;;1.05;0.60;;;21.20;76.40;;;;;;4982914;28;45371;-73
2022/10/10 12:21:14;;;;;;;1.27;0.80;;;21.10;76.50;;;;;;4965958;28;46463;-73
2022/10/10 12:23:46;;;;;;;1.83;1.08;;;21.10;76.60;;;;;;4978347;28;45386;-74
2022/10/10 12:26:16;;;;;;;1.08;0.60;;;21.10;76.80;;;;;;4976815;28;45365;-73
2022/10/10 12:29:00;;;;;;;2.45;0.75;;;21.10;76.90;;;;;;4982249;28;45420;-73
2022/10/10 12:31:30;;;;;;;2.05;0.70;;;21.10;77.10;;;;;;4974080;28;46621;-74
2022/10/10 12:34:13;;;;;;;1.85;0.82;;;21.00;77.10;;;;;;4981685;28;45382;-73
2022/10/10 12:37:11;;;;;;;1.98;0.65;;;21.00;77.10;;;;;;4971290;28;45300;-73
2022/10/10 12:40:01;;;;;;;1.65;0.68;;;21.00;77.20;;;;;;4980403;28;45331;-74
2022/10/10 12:42:31;;;;;;;2.75;0.70;;;21.00;77.40;;;;;;4974699;28;48253;-73
2022/10/10 12:44:58;;;;;;;2.15;0.70;;;21.00;77.40;;;;;;4982511;28;45387;-73
2022/10/10 12:47:32;;;;;;;1.10;0.60;;;21.00;77.30;;;;;;4978940;28;45382;-74
2022/10/10 12:50:02;;;;;;;1.30;0.50;;;21.00;77.60;;;;;;4981032;28;45261;-73
2022/10/10 12:52:34;;;;;;;1.73;0.60;;;21.00;77.70;;;;;;4975317;28;47745;-74
2022/10/10 12:55:07;;;;;;;1.30;0.65;;;21.00;77.70;;;;;;4979649;28;45324;-74
2022/10/10 12:57:37;;;;;;;1.55;0.70;;;21.00;77.40;;;;;;4980330;28;45287;-73
2022/10/10 13:00:06;;;;;;;1.25;0.50;;;21.00;77.20;;;;;;4981500;28;45504;-73